• Join FlightAware (Why Join?)
  • Login
  • US Flag 
09:00PM EDT


 

Airport Tracker/Info


-or-


 

Live Flight TrackerFlight Track Log ✈ N109MD ✈ 25-Aug-2013 ✈ KPGA - KBFL

Flight Track Log - Related Links

Times and Time Zones

All times are in EDT time to prevent confusion due to time zone crossing. See the N109MD flight status page for this flight to view local times or setup timezone preferences in your user account.

Time Position Orientation Groundspeed Altitude Reporting Facility
EDT Latitude Longitude Course Direction KTS MPH feet Rate Location/Type
02:27PM 36.8328 -111.4889 228° Southwest 191 220 7,800  Level Denver Center
02:28PM 36.8081 -111.5383 238° Southwest 180 207 9,600 1,500 Climbing Denver Center
02:29PM 36.7833 -111.5869 238° Southwest 173 199 11,000 1,320 Climbing Denver Center
02:30PM 36.6916 -111.8308 233° Southwest  Level FlightAware Approximate
02:30PM 36.7544 -111.6378 235° Southwest 173 199 12,400  Level Denver Center
02:31PM 36.6530 -111.8950 233° Southwest  Level FlightAware Approximate
02:31PM 36.7150 -111.7064 234° Southwest 183 211 14,200  Level Los Angeles Center
02:32PM 36.6897 -111.7561 238° Southwest 171 197 15,700 1,260 Climbing Los Angeles Center
02:33PM 36.6653 -111.8078 239° Southwest 171 197 16,900 960 Climbing Los Angeles Center
02:34PM 36.6311 -111.8739 237° Southwest 187 215 17,800 960 Climbing Los Angeles Center
02:35PM 36.6044 -111.9314 240° Southwest 191 220 19,000 1,140 Climbing Los Angeles Center
02:36PM 36.5808 -111.9861 242° Southwest 181 208 20,200 1,020 Climbing Los Angeles Center
02:37PM 36.5592 -112.0369 242° Southwest 167 192 21,200 840 Climbing Los Angeles Center
02:38PM 36.5364 -112.0889 241° Southwest 168 193 22,000 720 Climbing Los Angeles Center
02:39PM 36.5203 -112.1458 251° West 173 199 22,800 780 Climbing Los Angeles Center
02:41PM 36.5017 -112.2161 252° West 178 205 23,700 720 Climbing Los Angeles Center
02:42PM 36.4889 -112.2769 255° West 181 208 24,400 660 Climbing Los Angeles Center
02:43PM 36.4742 -112.3436 255° West 195 224 25,100 720 Climbing Los Angeles Center
02:44PM 36.4606 -112.4103 256° West 199 229 26,000 780 Climbing Los Angeles Center
02:45PM 36.4483 -112.4775 257° West 200 230 26,800 720 Climbing Los Angeles Center
02:46PM 36.4383 -112.5442 259° West 196 226 27,500 540 Climbing Los Angeles Center
02:47PM 36.4256 -112.6258 259° West 199 229 28,000 240 Climbing Los Angeles Center
02:48PM 36.4103 -112.7003 256° West 219 252 28,000  Level Los Angeles Center
02:49PM 36.3944 -112.7817 256° West 239 275 28,000  Level Los Angeles Center
02:50PM 36.3781 -112.8644 256° West 246 283 28,000  Level Los Angeles Center
02:51PM 36.3614 -112.9494 256° West 253 291 28,000  Level Los Angeles Center
02:52PM 36.3467 -113.0367 258° West 257 296 28,000  Level Los Angeles Center
02:53PM 36.3292 -113.1403 258° West 258 297 28,000  Level Los Angeles Center
02:54PM 36.3144 -113.2275 258° West 259 298 28,000  Level Los Angeles Center
02:55PM 36.3008 -113.3122 259° West 255 293 28,000  Level Los Angeles Center
02:56PM 36.2839 -113.3958 256° West 252 290 28,000  Level Los Angeles Center
02:57PM 36.2686 -113.4806 257° West 251 289 28,000  Level Los Angeles Center
02:58PM 36.2508 -113.5806 258° West 250 288 28,000  Level Los Angeles Center
02:59PM 36.2358 -113.6636 257° West 248 285 28,000  Level Los Angeles Center
03:00PM 36.2211 -113.7464 258° West 246 283 28,000  Level Los Angeles Center
03:01PM 36.2064 -113.8292 258° West 248 285 28,000  Level Los Angeles Center
03:02PM 36.1906 -113.9117 257° West 247 284 28,000  Level Los Angeles Center
03:03PM 36.1744 -113.9953 257° West 248 285 28,000  Level Los Angeles Center
03:04PM 36.1547 -114.0950 256° West 249 287 28,000  Level Los Angeles Center
03:05PM 36.1378 -114.1789 256° West 251 289 28,000  Level Los Angeles Center
03:06PM 36.1189 -114.2619 254° West 251 289 28,000  Level Los Angeles Center
03:07PM 36.1033 -114.3428 257° West 246 283 28,000  Level Los Angeles Center
03:08PM 36.0864 -114.4233 255° West 242 278 28,000  Level Los Angeles Center
03:10PM 36.0697 -114.5019 255° West 240 276 28,000  Level Los Angeles Center
03:11PM 36.0511 -114.5956 256° West 237 273 28,000  Level Los Angeles Center
03:12PM 36.0347 -114.6711 255° West 231 266 28,000  Level Los Angeles Center
03:13PM 36.0194 -114.7481 256° West 231 266 28,000  Level Los Angeles Center
03:14PM 36.0042 -114.8244 256° West 230 265 28,000  Level Los Angeles Center
03:15PM 35.9803 -114.8872 245° Southwest 205 236 28,000  Level Los Angeles Center
03:16PM 35.9425 -114.9367 227° Southwest 195 224 28,000  Level Los Angeles Center
03:17PM 35.9044 -114.9886 228° Southwest 202 232 28,000  Level Los Angeles Center
03:18PM 35.8569 -115.0517 227° Southwest 207 238 28,000  Level Los Angeles Center
03:19PM 35.8181 -115.1061 229° Southwest 211 243 28,000  Level Los Angeles Center
03:20PM 35.7789 -115.1611 229° Southwest 212 244 28,000  Level Los Angeles Center
03:21PM 35.7386 -115.2136 227° Southwest 210 242 28,000  Level Los Angeles Center
03:22PM 35.7008 -115.2658 228° Southwest 205 236 28,000  Level Los Angeles Center
03:23PM 35.6611 -115.3208 228° Southwest 211 243 28,000  Level Los Angeles Center
03:24PM 35.6131 -115.3856 228° Southwest 213 245 28,000  Level Los Angeles Center
03:25PM 35.5725 -115.4397 227° Southwest 215 247 28,000  Level Los Angeles Center
03:26PM 35.5317 -115.4953 228° Southwest 219 252 28,000  Level Los Angeles Center
03:27PM 35.4911 -115.5489 227° Southwest 216 249 28,000  Level Los Angeles Center
03:28PM 35.4533 -115.6011 228° Southwest 214 246 28,000  Level Los Angeles Center
03:29PM 35.4122 -115.6556 227° Southwest 217 250 28,000  Level Los Angeles Center
03:30PM 35.3625 -115.7200 227° Southwest 218 251 28,000  Level Los Angeles Center
03:31PM 35.3214 -115.7756 228° Southwest 219 252 28,000  Level Los Angeles Center
03:32PM 35.2800 -115.8311 228° Southwest 221 254 28,000  Level Los Angeles Center
03:33PM 35.2372 -115.8858 226° Southwest 222 255 28,000  Level Los Angeles Center
03:34PM 35.1950 -115.9425 228° Southwest 224 258 28,000  Level Los Angeles Center
03:35PM 35.1561 -115.9975 229° Southwest 217 250 28,000  Level Los Angeles Center
03:36PM 35.1542 -116.1000 269° West 251 289 28,000  Level Los Angeles Center
03:37PM 35.1544 -116.1831 270° West 247 284 28,000  Level Los Angeles Center
03:39PM 35.1528 -116.2681 269° West 249 287 28,000  Level Los Angeles Center
03:40PM 35.1533 -116.3531 270° West 251 289 28,000  Level Los Angeles Center
03:41PM 35.1525 -116.4369 269° West 250 288 28,000  Level Los Angeles Center
03:42PM 35.1531 -116.5383 270° West 248 285 28,000  Level Los Angeles Center
03:43PM 35.1522 -116.6225 269° West 248 285 28,000  Level Los Angeles Center
03:44PM 35.1517 -116.7044 270° West 244 281 28,000  Level Los Angeles Center
03:45PM 35.1511 -116.7869 270° West 243 280 28,000  Level Los Angeles Center
03:46PM 35.1497 -116.8706 269° West 245 282 28,000 -120 Level Los Angeles Center
03:47PM 35.1500 -116.9550 270° West 248 285 27,800 -540 Descending Los Angeles Center
03:48PM 35.1608 -117.0636 277° West 268 308 26,900 -840 Descending Los Angeles Center
03:49PM 35.1758 -117.1597 281° West 285 328 26,100 -840 Descending Los Angeles Center
03:50PM 35.1889 -117.2558 279° West 287 330 25,200 -960 Descending Los Angeles Center
03:51PM 35.2006 -117.3550 278° West 294 338 24,100 -1,020 Descending Los Angeles Center
03:52PM 35.1964 -117.4547 267° West 300 345 23,100 -1,080 Descending Los Angeles Center
03:53PM 35.1908 -117.5731 267° West 297 342 21,900 -1,080 Descending Los Angeles Center
03:54PM 35.1853 -117.6722 266° West 299 344 20,900 -1,020 Descending Los Angeles Center
03:55PM 35.1794 -117.7694 266° West 294 338 19,900 -1,140 Descending Los Angeles Center
03:56PM 35.1733 -117.8689 266° West 294 338 18,600 -1,440 Descending Los Angeles Center
03:57PM 35.1669 -117.9875 266° West 294 338 17,000 -1,440 Descending Los Angeles Center
03:58PM 35.1614 -118.0819 266° West 284 327 15,600 -1,620 Descending Los Angeles Center
03:59PM 35.1564 -118.1783 266° West 285 328 13,700 -1,860 Descending Los Angeles Center
04:00PM 35.1503 -118.2775 266° West 284 327 11,800 -1,680 Descending Los Angeles Center
04:01PM 35.1444 -118.3683 266° West 280 322 10,300 -900 Descending Los Angeles Center
04:02PM 35.1375 -118.4742 265° West 264 304 10,000 -300 Descending Los Angeles Center
04:03PM 35.1483 -118.5544 279° West 237 273 9,700 -780 Descending Los Angeles Center
04:04PM 35.1619 -118.6378 281° West 249 287 8,500 -1,260 Descending Los Angeles Center
04:05PM 35.1861 -118.7178 290° West 252 290 7,200 720 Descending Los Angeles Center
04:06PM 35.2161 -118.7933 296° West 250 288 10,000 1,320 Climbing Los Angeles Center
04:07PM 35.2675 -118.8464 320° Northwest 246 283 10,000  Level Los Angeles Center
04:09PM 35.3045 -118.9090 302° West  Level FlightAware Approximate
04:16PM 35.4333 -119.0500 321° Northwest  Level FlightAware Approximate
04:17PM 35.4339 -119.0577 321° Northwest  Level Estimated
04:18PM 35.4333 -119.0500 321° Northwest  Level FlightAware Approximate
04:19PM 35.4339 -119.0577 321° Northwest  Level Estimated
04:20PM 35.4333 -119.0500 321° Northwest  Level FlightAware Approximate
04:21PM 35.4339 -119.0577 321° Northwest  Level Estimated
04:22PM 35.4333 -119.0500 321° Northwest  Level FlightAware Approximate